Klaipėda, Lithuania

10:47 AM EET on sausio 24, 2019 (GMT +0200)
Tauralaukis | | Change Station

Elev 351 ft 55.71 °N, 21.14 °E | Updated 5 seconds ago

Debesuota su pragiedruliais
Debesuota su pragiedruliais
18 °F
Feels Like 18 °F
N
0
Vėjas nepastovus Vėjas from Pietų-pietryčių
Gusts 1.0 mph

Šiandien
High -- | Low -- °F
--% Chance of Precip.
Yesterday
High -- | Low -- °F
Precip. -- in
Slėgis 30.06 in
Matomumas 4.3 mylios
Debesys
Šaltas vėjas 18 °F
Rasos taškas 18 °F
Drėgmė 99%
Krituliai 0.00 in
Sniego dangos storis Not available.
8:43 AM 4:52 PM
Delčia, 86% visible
METAR UMKK 240830Z 14002MPS 110V170 7000 NSC M12/M14 Q1018 R24/19//50 NOSIG RMK QFE763/1017
Slėgis 30.06 in
Matomumas 4.3 mylios
Debesys
Šaltas vėjas 18 °F
Rasos taškas 18 °F
Drėgmė 99%
Krituliai 0.00 in
Sniego dangos storis Not available.
8:43 AM 4:52 PM
Delčia, 86% visible
METAR UMKK 240830Z 14002MPS 110V170 7000 NSC M12/M14 Q1018 R24/19//50 NOSIG RMK QFE763/1017

Get Severe Weather Alerts

Thanks for signing up!

Be on the lookout for a verification email in your inbox.

You'll start receiving the daily forecast at 6 AM.

×

10-Day Weather Forecast

×

Almanac

Astronomija

Jan. 24, 2019 Rise Set
Vietos laikas
Dienos šviesa
Jūrinė diena
Astronominė diena
Mėnulis
Matomos šviesos trukmė
Dienos ilgis
Tomorrow will be .
, % of the Moon is Illuminated

Šiandienos maksimumai

Country Highs Country Lows

Community

WunderPhotos

Category 6

Welcome to Category 6. This is the collective home for Weather Underground's featured writeups by Dr. Jeff Masters (right), Bob Henson (left), Chris Burt, and other regular contributors.

Nearby

Air Quality

  Air Quality AQ Index Pollutant
Not available.

Sniego danga

Station Depth Elevation

Earthquake Activity

Miestas Distance Mag. Time & Date
Minimum magnitude displayed is 2.5.

Coastal Water Temperatures

Vieta Temperatūra

Stations

Nearby Weather Stations

Station Location Temp Šaltas vėjas Rasos taškas Drėgmė Vėjas Precip. Elev Duomenys papildyti Type